createdAt,value
2019-03-06T00:01:27.691Z,98396.89
2019-03-06T00:04:41.488Z,98398.30
2019-03-06T00:07:55.181Z,98397.91
2019-03-06T00:11:08.883Z,98392.43
2019-03-06T00:14:22.374Z,98389.38
2019-03-06T00:17:36.317Z,98388.09
2019-03-06T00:20:49.888Z,98388.84
2019-03-06T00:24:03.574Z,98388.73
2019-03-06T00:27:17.023Z,98390.36
2019-03-06T00:30:30.989Z,98382.21
2019-03-06T00:33:44.457Z,98381.43
2019-03-06T00:36:57.934Z,98374.04
2019-03-06T00:40:20.050Z,98376.08
2019-03-06T00:43:33.631Z,98377.61
2019-03-06T00:46:47.450Z,98371.63
2019-03-06T00:50:00.927Z,98368.18
2019-03-06T00:53:14.384Z,98362.33
2019-03-06T00:56:27.827Z,98358.50
2019-03-06T00:59:41.924Z,98368.20
2019-03-06T01:02:55.508Z,98361.30
2019-03-06T01:06:09.788Z,98354.40
2019-03-06T01:09:23.368Z,98344.48
2019-03-06T01:12:37.227Z,98335.66
2019-03-06T01:15:51.072Z,98332.48
2019-03-06T01:19:04.746Z,98331.46
2019-03-06T01:22:18.231Z,98330.94
2019-03-06T01:25:32.075Z,98329.66
2019-03-06T01:28:45.643Z,98337.31
2019-03-06T01:31:59.448Z,98330.66
2019-03-06T01:35:32.782Z,98328.49
2019-03-06T01:39:02.018Z,98327.86
2019-03-06T01:42:21.295Z,98313.45
2019-03-06T01:45:35.375Z,98299.56
2019-03-06T01:48:48.832Z,98306.30
2019-03-06T01:52:02.406Z,98302.86
2019-03-06T01:55:16.199Z,98295.47
2019-03-06T01:58:29.978Z,98279.86
2019-03-06T02:01:43.784Z,98287.45
2019-03-06T02:04:57.240Z,98289.36
2019-03-06T02:08:12.019Z,98283.38
2019-03-06T02:11:25.945Z,98279.55
2019-03-06T02:14:39.640Z,98273.17
2019-03-06T02:17:53.113Z,98261.66
2019-03-06T02:21:06.580Z,98270.80
2019-03-06T02:24:20.583Z,98286.26
2019-03-06T02:27:34.567Z,98270.22
2019-03-06T02:30:48.126Z,98257.48
2019-03-06T02:34:01.886Z,98257.23
2019-03-06T02:37:15.459Z,98256.69
2019-03-06T02:40:28.922Z,98275.29
2019-03-06T02:43:42.685Z,98266.64
2019-03-06T02:46:56.151Z,98258.28
2019-03-06T02:50:10.640Z,98255.45
2019-03-06T02:53:24.424Z,98258.45
2019-03-06T02:56:37.896Z,98262.81
2019-03-06T03:00:03.623Z,98268.91
2019-03-06T03:03:33.450Z,98261.28
2019-03-06T03:07:06.578Z,98246.52
2019-03-06T03:10:20.386Z,98243.06
2019-03-06T03:13:33.967Z,98237.41
2019-03-06T03:16:47.443Z,98230.48
2019-03-06T03:20:01.018Z,98243.72
2019-03-06T03:23:14.489Z,98239.02
2019-03-06T03:26:28.082Z,98237.22
2019-03-06T03:29:41.544Z,98227.82
2019-03-06T03:32:55.120Z,98213.81
2019-03-06T03:36:08.952Z,98215.11
2019-03-06T03:39:22.432Z,98213.39
2019-03-06T03:42:36.333Z,98213.53
2019-03-06T03:45:50.100Z,98202.77
2019-03-06T03:49:03.775Z,98195.91
2019-03-06T03:52:17.537Z,98205.80
2019-03-06T03:55:31.267Z,98206.49
2019-03-06T03:58:44.742Z,98208.88
2019-03-06T04:01:58.582Z,98210.49
2019-03-06T04:05:13.133Z,98198.95
2019-03-06T04:08:26.973Z,98198.11
2019-03-06T04:11:40.426Z,98199.57
2019-03-06T04:14:53.914Z,98204.56
2019-03-06T04:18:07.735Z,98186.22
2019-03-06T04:21:21.211Z,98184.45
2019-03-06T04:24:34.681Z,98185.19
2019-03-06T04:27:48.430Z,98176.95
2019-03-06T04:31:01.995Z,98169.60
2019-03-06T04:34:15.965Z,98173.33
2019-03-06T04:37:29.655Z,98183.99
2019-03-06T04:40:43.260Z,98174.91
2019-03-06T04:43:56.730Z,98169.13
2019-03-06T04:47:10.303Z,98165.20
2019-03-06T04:50:24.155Z,98164.11
2019-03-06T04:53:37.607Z,98163.44
2019-03-06T04:56:51.498Z,98151.53
2019-03-06T05:00:06.515Z,98162.52
2019-03-06T05:03:20.227Z,98164.17
2019-03-06T05:06:33.993Z,98152.70
2019-03-06T05:09:47.756Z,98145.83
2019-03-06T05:13:01.208Z,98155.85
2019-03-06T05:16:14.690Z,98154.86
2019-03-06T05:19:28.723Z,98149.90
2019-03-06T05:22:42.463Z,98154.14
2019-03-06T05:25:55.927Z,98144.27
2019-03-06T05:29:09.647Z,98149.97
2019-03-06T05:32:33.771Z,98131.20
2019-03-06T05:36:03.578Z,98132.48
2019-03-06T05:39:17.035Z,98122.05
2019-03-06T05:42:30.504Z,98120.80
2019-03-06T05:45:44.408Z,98125.93
2019-03-06T05:48:57.969Z,98119.60
2019-03-06T05:52:11.868Z,98105.73
2019-03-06T05:55:25.326Z,98095.55
2019-03-06T05:58:39.152Z,98089.22
2019-03-06T06:01:52.620Z,98090.98
2019-03-06T06:05:08.722Z,98076.16
2019-03-06T06:08:22.189Z,98071.54
2019-03-06T06:11:35.648Z,98067.20
2019-03-06T06:14:49.381Z,98065.72
2019-03-06T06:18:03.252Z,98062.95
2019-03-06T06:21:32.299Z,98064.00
2019-03-06T06:24:46.012Z,98060.09
2019-03-06T06:27:59.480Z,98054.48
2019-03-06T06:31:13.334Z,98050.06
2019-03-06T06:34:26.915Z,98054.84
2019-03-06T06:37:40.384Z,98049.14
2019-03-06T06:40:53.864Z,98049.39
2019-03-06T06:44:07.325Z,98039.75
2019-03-06T06:47:20.797Z,98040.07
2019-03-06T06:50:34.459Z,98039.34
2019-03-06T06:54:13.410Z,98026.93
2019-03-06T06:57:54.375Z,98012.24
2019-03-06T07:01:26.069Z,97988.42
2019-03-06T07:05:17.127Z,97994.44
2019-03-06T07:08:49.372Z,97991.94
2019-03-06T07:12:09.473Z,97997.65
2019-03-06T07:15:41.585Z,97993.86
2019-03-06T07:19:09.380Z,97984.79
2019-03-06T07:22:47.053Z,97981.64
2019-03-06T07:26:07.709Z,97974.02
2019-03-06T07:29:41.206Z,97960.11
2019-03-06T07:33:13.279Z,97959.66
2019-03-06T07:36:45.267Z,97965.22
2019-03-06T07:40:05.562Z,97965.23
2019-03-06T07:43:29.880Z,97962.84
2019-03-06T07:46:50.977Z,97961.59
2019-03-06T07:50:27.379Z,97966.86
2019-03-06T07:54:08.304Z,97961.89
2019-03-06T07:57:29.535Z,97957.98
2019-03-06T08:00:43.114Z,97942.23
2019-03-06T08:04:05.872Z,97947.16
2019-03-06T08:07:19.453Z,97939.89
2019-03-06T08:10:34.027Z,97942.42
2019-03-06T08:14:10.750Z,97927.48
2019-03-06T08:17:29.760Z,97919.83
2019-03-06T08:21:15.304Z,97917.71
2019-03-06T08:24:35.278Z,97930.06
2019-03-06T08:27:48.750Z,97926.16
2019-03-06T08:31:34.075Z,97915.64
2019-03-06T08:34:47.639Z,97910.55
2019-03-06T08:38:01.822Z,97909.62
2019-03-06T08:41:15.287Z,97905.37
2019-03-06T08:44:28.999Z,97903.33
2019-03-06T08:48:14.651Z,97903.70
2019-03-06T08:51:49.080Z,97884.72
2019-03-06T08:55:12.519Z,97877.34
2019-03-06T08:58:44.622Z,97870.50
2019-03-06T09:02:15.102Z,97868.20
2019-03-06T09:05:46.713Z,97849.30
2019-03-06T09:09:18.446Z,97849.36
2019-03-06T09:12:55.017Z,97838.77
2019-03-06T09:16:28.367Z,97830.86
2019-03-06T09:20:08.138Z,97824.05
2019-03-06T09:23:42.671Z,97821.34
2019-03-06T09:27:04.294Z,97817.58
2019-03-06T09:30:31.383Z,97819.53
2019-03-06T09:34:04.795Z,97815.11
2019-03-06T09:37:43.790Z,97814.49
2019-03-06T09:41:15.481Z,97806.36
2019-03-06T09:44:37.185Z,97803.38
2019-03-06T09:47:57.982Z,97791.01
2019-03-06T09:51:30.267Z,97791.19
2019-03-06T09:55:06.570Z,97789.89
2019-03-06T09:58:33.675Z,97783.30
2019-03-06T10:02:07.103Z,97776.37
2019-03-06T10:05:33.988Z,97773.56
2019-03-06T10:09:05.708Z,97767.78
2019-03-06T10:12:28.544Z,97755.99
2019-03-06T10:15:55.192Z,97747.41
2019-03-06T10:19:30.418Z,97740.13
2019-03-06T10:22:44.037Z,97733.42
2019-03-06T10:25:57.695Z,97729.55
2019-03-06T10:29:11.289Z,97724.47
2019-03-06T10:32:24.906Z,97728.80
2019-03-06T10:35:38.616Z,97719.07
2019-03-06T10:38:52.330Z,97721.66
2019-03-06T10:42:06.240Z,97718.61
2019-03-06T10:45:20.926Z,97708.36
2019-03-06T10:48:34.852Z,97710.25
2019-03-06T10:51:48.483Z,97701.43
2019-03-06T10:55:04.372Z,97693.27
2019-03-06T10:58:17.960Z,97690.05
2019-03-06T11:01:31.647Z,97694.53
2019-03-06T11:04:53.053Z,97682.55
2019-03-06T11:08:08.100Z,97677.81
2019-03-06T11:11:25.172Z,97668.19
2019-03-06T11:14:40.109Z,97674.34
2019-03-06T11:17:56.524Z,97659.01
2019-03-06T11:21:11.602Z,97662.83
2019-03-06T11:24:29.246Z,97654.57
2019-03-06T11:27:44.987Z,97655.94
2019-03-06T11:31:02.771Z,97655.32
2019-03-06T11:34:19.621Z,97652.44
2019-03-06T11:37:36.089Z,97651.50
2019-03-06T11:40:51.157Z,97647.47
2019-03-06T11:44:07.004Z,97642.48
2019-03-06T11:47:21.953Z,97640.37
2019-03-06T11:50:40.955Z,97627.81
2019-03-06T11:53:53.687Z,97624.36
2019-03-06T11:57:07.460Z,97616.63
2019-03-06T12:00:32.744Z,97623.20
2019-03-06T12:03:49.891Z,97604.79
2019-03-06T12:07:05.374Z,97591.03
2019-03-06T12:10:19.358Z,97591.75
2019-03-06T12:13:34.920Z,97579.94
2019-03-06T12:16:48.808Z,97580.37
2019-03-06T12:20:08.232Z,97566.87
2019-03-06T12:23:18.233Z,97557.06
2019-03-06T12:26:37.753Z,97546.21
2019-03-06T12:29:51.425Z,97540.80
2019-03-06T12:33:05.194Z,97526.23
2019-03-06T12:36:19.095Z,97528.12
2019-03-06T12:39:33.091Z,97509.69
2019-03-06T12:42:46.755Z,97508.09
2019-03-06T12:58:19.859Z,97473.52
2019-03-06T13:01:33.543Z,97466.30
2019-03-06T13:04:47.379Z,97459.41
2019-03-06T13:08:01.094Z,97456.04
2019-03-06T13:11:14.790Z,97450.63
2019-03-06T13:14:30.523Z,97448.75
2019-03-06T13:17:44.111Z,97444.14
2019-03-06T13:20:57.900Z,97432.34
2019-03-06T13:24:12.037Z,97430.61
2019-03-06T13:27:25.804Z,97424.37
2019-03-06T13:30:39.517Z,97419.13
2019-03-06T13:34:05.311Z,97403.77
2019-03-06T13:37:19.298Z,97397.53
2019-03-06T13:40:33.155Z,97395.41
2019-03-06T13:43:47.249Z,97408.23
2019-03-06T13:47:01.366Z,97396.28
2019-03-06T13:50:15.193Z,97381.02
2019-03-06T13:53:29.026Z,97371.39
2019-03-06T13:56:42.916Z,97371.63
2019-03-06T13:59:56.600Z,97364.03
2019-03-06T14:03:10.226Z,97360.10
2019-03-06T14:06:23.835Z,97362.05
2019-03-06T14:09:37.754Z,97349.39
2019-03-06T14:12:51.858Z,97345.92
2019-03-06T14:16:06.022Z,97332.36
2019-03-06T14:19:19.905Z,97341.48
2019-03-06T14:22:33.914Z,97348.73
2019-03-06T14:25:48.226Z,97358.78
2019-03-06T14:29:02.388Z,97355.78
2019-03-06T14:32:16.115Z,97370.02
2019-03-06T14:35:29.831Z,97356.52
2019-03-06T14:38:43.528Z,97360.23
2019-03-06T14:41:59.015Z,97365.30
2019-03-06T14:45:13.297Z,97355.85
2019-03-06T14:48:27.139Z,97340.52
2019-03-06T14:51:40.738Z,97345.41
2019-03-06T14:54:57.331Z,97341.39
2019-03-06T14:58:11.040Z,97342.02
2019-03-06T15:01:24.936Z,97328.88
2019-03-06T15:04:40.844Z,97329.33
2019-03-06T15:07:54.410Z,97331.82
2019-03-06T15:11:08.483Z,97319.97
2019-03-06T15:14:23.744Z,97321.62
2019-03-06T15:17:37.605Z,97308.39
2019-03-06T15:20:51.077Z,97319.58
2019-03-06T15:24:05.109Z,97323.19
2019-03-06T15:27:18.717Z,97326.08
2019-03-06T15:30:32.500Z,97330.47
2019-03-06T15:33:46.322Z,97325.07
2019-03-06T15:36:59.810Z,97331.41
2019-03-06T15:40:17.421Z,97324.17
2019-03-06T15:43:31.015Z,97328.17
2019-03-06T15:46:45.278Z,97320.65
2019-03-06T15:49:58.872Z,97321.57
2019-03-06T15:53:13.705Z,97315.69
2019-03-06T15:56:27.328Z,97311.69
2019-03-06T15:59:40.949Z,97311.34
2019-03-06T16:02:55.371Z,97319.09
2019-03-06T16:06:08.945Z,97313.23
2019-03-06T16:09:22.825Z,97324.08
2019-03-06T16:12:36.484Z,97329.43
2019-03-06T16:15:50.471Z,97339.52
2019-03-06T16:19:04.746Z,97332.14
2019-03-06T16:22:18.285Z,97327.81
2019-03-06T16:25:36.658Z,97327.36
2019-03-06T16:28:47.340Z,97330.39
2019-03-06T16:32:00.836Z,97331.19
2019-03-06T16:35:14.867Z,97333.45
2019-03-06T16:38:28.787Z,97332.97
2019-03-06T16:41:42.372Z,97336.67
2019-03-06T16:44:55.958Z,97337.77
2019-03-06T16:48:09.768Z,97323.48
2019-03-06T16:51:23.852Z,97323.75
2019-03-06T16:54:37.560Z,97318.00
2019-03-06T16:57:51.421Z,97311.20
2019-03-06T17:01:05.214Z,97310.98
2019-03-06T17:04:19.079Z,97311.27
2019-03-06T17:07:33.126Z,97305.64
2019-03-06T17:10:46.839Z,97298.66
2019-03-06T17:14:02.052Z,97298.53
2019-03-06T17:17:16.067Z,97287.69
2019-03-06T17:20:29.744Z,97289.59
2019-03-06T17:23:43.415Z,97287.41
2019-03-06T17:26:57.228Z,97276.77
2019-03-06T17:30:16.598Z,97271.58
2019-03-06T17:33:30.266Z,97270.22
2019-03-06T17:36:43.844Z,97279.23
2019-03-06T17:39:57.417Z,97273.55
2019-03-06T17:43:12.522Z,97269.88
2019-03-06T17:46:26.491Z,97269.74
2019-03-06T17:49:40.335Z,97253.42
2019-03-06T17:52:54.463Z,97258.16
2019-03-06T17:56:08.054Z,97251.11
2019-03-06T17:59:21.616Z,97247.46
2019-03-06T18:02:35.092Z,97235.56
2019-03-06T18:05:48.778Z,97229.92
2019-03-06T18:09:04.160Z,97226.06
2019-03-06T18:12:17.732Z,97218.02
2019-03-06T18:15:31.179Z,97214.03
2019-03-06T18:18:45.156Z,97207.19
2019-03-06T18:21:58.720Z,97203.08
2019-03-06T18:25:13.470Z,97199.89
2019-03-06T18:28:27.350Z,97198.72
2019-03-06T18:31:41.124Z,97191.67
2019-03-06T18:34:55.738Z,97192.84
2019-03-06T18:38:09.403Z,97194.66
2019-03-06T18:41:22.872Z,97190.55
2019-03-06T18:44:36.607Z,97195.48
2019-03-06T18:47:50.449Z,97206.52
2019-03-06T18:51:03.908Z,97188.72
2019-03-06T18:54:17.511Z,97185.06
2019-03-06T18:57:30.985Z,97182.95
2019-03-06T19:00:44.489Z,97188.23
2019-03-06T19:03:57.963Z,97176.53
2019-03-06T19:07:12.055Z,97168.53
2019-03-06T19:10:26.128Z,97169.36
2019-03-06T19:13:39.811Z,97157.69
2019-03-06T19:16:53.351Z,97150.58
2019-03-06T19:20:07.425Z,97150.17
2019-03-06T19:23:21.238Z,97142.59
2019-03-06T19:26:37.261Z,97135.55
2019-03-06T19:29:50.730Z,97145.02
2019-03-06T19:33:04.487Z,97140.82
2019-03-06T19:36:18.259Z,97126.02
2019-03-06T19:39:31.829Z,97136.63
2019-03-06T19:42:45.595Z,97136.63
2019-03-06T19:45:59.339Z,97137.62
2019-03-06T19:49:13.131Z,97137.06
2019-03-06T19:52:26.705Z,97131.83
2019-03-06T19:55:40.300Z,97140.19
2019-03-06T19:58:53.905Z,97120.10
2019-03-06T20:02:07.820Z,97119.43
2019-03-06T20:05:22.819Z,97109.48
2019-03-06T20:08:37.079Z,97116.56
2019-03-06T20:11:50.841Z,97115.97
2019-03-06T20:15:04.673Z,97110.28
2019-03-06T20:18:18.368Z,97101.09
2019-03-06T20:21:32.165Z,97100.38
2019-03-06T20:24:46.028Z,97094.09
2019-03-06T20:27:59.960Z,97079.09
2019-03-06T20:31:13.687Z,97081.03
2019-03-06T20:34:27.495Z,97084.67
2019-03-06T20:37:41.193Z,97089.80
2019-03-06T20:40:54.859Z,97092.52
2019-03-06T20:44:08.389Z,97093.62
2019-03-06T20:47:21.944Z,97081.13
2019-03-06T20:50:35.517Z,97074.98
2019-03-06T20:53:48.996Z,97076.31
2019-03-06T20:57:02.672Z,97075.78
2019-03-06T21:00:18.670Z,97068.55
2019-03-06T21:03:32.134Z,97067.56
2019-03-06T21:06:45.750Z,97060.52
2019-03-06T21:09:59.258Z,97060.42
2019-03-06T21:13:12.730Z,97061.02
2019-03-06T21:16:26.208Z,97067.62
2019-03-06T21:19:39.693Z,97061.76
2019-03-06T21:22:53.651Z,97064.41
2019-03-06T21:26:07.118Z,97072.84
2019-03-06T21:29:20.578Z,97077.41
2019-03-06T21:32:34.046Z,97086.44
2019-03-06T21:35:47.661Z,97083.41
2019-03-06T21:39:01.176Z,97085.11
2019-03-06T21:42:14.637Z,97073.07
2019-03-06T21:45:28.198Z,97075.18
2019-03-06T21:48:41.661Z,97073.90
2019-03-06T21:51:55.130Z,97070.23
2019-03-06T21:55:10.311Z,97063.36
2019-03-06T21:58:23.818Z,97061.91
2019-03-06T22:01:37.301Z,97054.22
2019-03-06T22:04:50.856Z,97055.22
2019-03-06T22:08:04.321Z,97048.89
2019-03-06T22:11:17.790Z,97047.06
2019-03-06T22:14:31.248Z,97037.64
2019-03-06T22:17:44.992Z,97035.44
2019-03-06T22:20:58.428Z,97032.92
2019-03-06T22:24:12.007Z,97033.57
2019-03-06T22:27:25.464Z,97024.96
2019-03-06T22:30:39.225Z,97018.41
2019-03-06T22:33:52.688Z,97017.54
2019-03-06T22:37:06.250Z,97021.72
2019-03-06T22:40:20.226Z,97012.69
2019-03-06T22:43:33.695Z,97008.31
2019-03-06T22:46:47.360Z,96998.58
2019-03-06T22:50:00.811Z,96994.97
2019-03-06T22:53:14.271Z,96979.97
2019-03-06T22:56:28.324Z,96962.63
2019-03-06T22:59:41.795Z,96966.00
2019-03-06T23:02:55.577Z,96968.51
2019-03-06T23:06:09.623Z,96975.13
2019-03-06T23:09:23.193Z,96978.23
2019-03-06T23:12:36.759Z,96981.75
2019-03-06T23:15:50.312Z,96970.83
2019-03-06T23:19:04.262Z,96973.89
2019-03-06T23:22:17.719Z,96968.22
2019-03-06T23:25:31.727Z,96957.76
2019-03-06T23:28:45.182Z,96957.45
2019-03-06T23:31:58.975Z,96953.67
2019-03-06T23:35:12.550Z,96935.45
2019-03-06T23:38:26.298Z,96935.86
2019-03-06T23:41:39.996Z,96928.69
2019-03-06T23:44:53.463Z,96920.44
2019-03-06T23:48:07.041Z,96911.22
2019-03-06T23:51:26.024Z,96912.66
2019-03-06T23:54:39.491Z,96904.45
2019-03-06T23:57:53.061Z,96900.41
